sensor_id;sensor_type;location;lat;lon;timestamp;temperature;humidity
28171;DHT22;15458;53.346;-1.688;2023-11-21T00:00:17;9.10;99.90
28171;DHT22;15458;53.346;-1.688;2023-11-21T00:02:43;9.10;99.90
28171;DHT22;15458;53.346;-1.688;2023-11-21T00:05:10;9.00;99.90
28171;DHT22;15458;53.346;-1.688;2023-11-21T00:07:38;9.00;99.90
28171;DHT22;15458;53.346;-1.688;2023-11-21T00:10:04;9.00;99.90
28171;DHT22;15458;53.346;-1.688;2023-11-21T00:12:36;9.00;99.90
28171;DHT22;15458;53.346;-1.688;2023-11-21T00:15:03;9.00;99.90
28171;DHT22;15458;53.346;-1.688;2023-11-21T00:17:30;9.00;99.90
28171;DHT22;15458;53.346;-1.688;2023-11-21T00:19:56;8.90;99.90
28171;DHT22;15458;53.346;-1.688;2023-11-21T00:22:22;8.90;99.90
28171;DHT22;15458;53.346;-1.688;2023-11-21T00:24:48;9.00;99.90
28171;DHT22;15458;53.346;-1.688;2023-11-21T00:27:13;8.90;99.90
28171;DHT22;15458;53.346;-1.688;2023-11-21T00:29:40;8.90;99.90
28171;DHT22;15458;53.346;-1.688;2023-11-21T00:32:06;8.90;99.90
28171;DHT22;15458;53.346;-1.688;2023-11-21T00:34:32;8.90;99.90
28171;DHT22;15458;53.346;-1.688;2023-11-21T00:36:58;8.90;99.90
28171;DHT22;15458;53.346;-1.688;2023-11-21T00:39:24;8.80;99.90
28171;DHT22;15458;53.346;-1.688;2023-11-21T00:41:51;8.80;99.90
28171;DHT22;15458;53.346;-1.688;2023-11-21T00:44:17;8.80;99.90
28171;DHT22;15458;53.346;-1.688;2023-11-21T00:46:43;8.80;99.90
28171;DHT22;15458;53.346;-1.688;2023-11-21T00:49:08;8.80;99.90
28171;DHT22;15458;53.346;-1.688;2023-11-21T00:51:34;8.80;99.90
28171;DHT22;15458;53.346;-1.688;2023-11-21T00:54:00;8.80;99.90
28171;DHT22;15458;53.346;-1.688;2023-11-21T00:56:26;8.80;99.90
28171;DHT22;15458;53.346;-1.688;2023-11-21T00:58:52;8.70;99.90
28171;DHT22;15458;53.346;-1.688;2023-11-21T01:01:19;8.70;99.90
28171;DHT22;15458;53.346;-1.688;2023-11-21T01:03:48;8.70;99.90
28171;DHT22;15458;53.346;-1.688;2023-11-21T01:06:15;8.70;99.90
28171;DHT22;15458;53.346;-1.688;2023-11-21T01:08:40;8.60;99.90
28171;DHT22;15458;53.346;-1.688;2023-11-21T01:11:06;8.60;99.90
28171;DHT22;15458;53.346;-1.688;2023-11-21T01:13:34;8.60;99.90
28171;DHT22;15458;53.346;-1.688;2023-11-21T01:16:00;8.60;99.90
28171;DHT22;15458;53.346;-1.688;2023-11-21T01:18:26;8.60;99.90
28171;DHT22;15458;53.346;-1.688;2023-11-21T01:20:52;8.60;99.90
28171;DHT22;15458;53.346;-1.688;2023-11-21T01:23:19;8.60;99.90
28171;DHT22;15458;53.346;-1.688;2023-11-21T01:25:45;8.60;99.90
28171;DHT22;15458;53.346;-1.688;2023-11-21T01:28:11;8.50;99.90
28171;DHT22;15458;53.346;-1.688;2023-11-21T01:30:37;8.50;99.90
28171;DHT22;15458;53.346;-1.688;2023-11-21T01:33:03;8.50;99.90
28171;DHT22;15458;53.346;-1.688;2023-11-21T01:35:29;8.50;99.90
28171;DHT22;15458;53.346;-1.688;2023-11-21T01:37:55;8.50;99.90
28171;DHT22;15458;53.346;-1.688;2023-11-21T01:40:21;8.50;99.90
28171;DHT22;15458;53.346;-1.688;2023-11-21T01:42:47;8.50;99.90
28171;DHT22;15458;53.346;-1.688;2023-11-21T01:45:14;8.50;99.90
28171;DHT22;15458;53.346;-1.688;2023-11-21T01:47:41;8.40;99.90
28171;DHT22;15458;53.346;-1.688;2023-11-21T01:50:08;8.40;99.90
28171;DHT22;15458;53.346;-1.688;2023-11-21T01:52:37;8.40;99.90
28171;DHT22;15458;53.346;-1.688;2023-11-21T01:55:05;8.40;99.90
28171;DHT22;15458;53.346;-1.688;2023-11-21T01:57:31;8.40;99.90
28171;DHT22;15458;53.346;-1.688;2023-11-21T01:59:58;8.30;99.90
28171;DHT22;15458;53.346;-1.688;2023-11-21T02:02:46;8.30;99.90
28171;DHT22;15458;53.346;-1.688;2023-11-21T02:05:14;8.30;99.90
28171;DHT22;15458;53.346;-1.688;2023-11-21T02:07:41;8.30;99.90
28171;DHT22;15458;53.346;-1.688;2023-11-21T02:10:08;8.30;99.90
28171;DHT22;15458;53.346;-1.688;2023-11-21T02:12:35;8.30;99.90
28171;DHT22;15458;53.346;-1.688;2023-11-21T02:15:04;8.30;99.90
28171;DHT22;15458;53.346;-1.688;2023-11-21T02:17:43;8.30;99.90
28171;DHT22;15458;53.346;-1.688;2023-11-21T02:20:13;8.30;99.90
28171;DHT22;15458;53.346;-1.688;2023-11-21T02:22:52;8.30;99.90
28171;DHT22;15458;53.346;-1.688;2023-11-21T02:25:25;8.30;99.90
28171;DHT22;15458;53.346;-1.688;2023-11-21T02:27:56;8.30;99.90
28171;DHT22;15458;53.346;-1.688;2023-11-21T02:30:22;8.30;99.90
28171;DHT22;15458;53.346;-1.688;2023-11-21T02:32:50;8.30;99.90
28171;DHT22;15458;53.346;-1.688;2023-11-21T02:35:19;8.30;99.90
28171;DHT22;15458;53.346;-1.688;2023-11-21T02:37:46;8.30;99.90
28171;DHT22;15458;53.346;-1.688;2023-11-21T02:40:12;8.30;99.90
28171;DHT22;15458;53.346;-1.688;2023-11-21T02:42:39;8.30;99.90
28171;DHT22;15458;53.346;-1.688;2023-11-21T02:45:07;8.30;99.90
28171;DHT22;15458;53.346;-1.688;2023-11-21T02:47:33;8.30;99.90
28171;DHT22;15458;53.346;-1.688;2023-11-21T02:49:59;8.40;99.90
28171;DHT22;15458;53.346;-1.688;2023-11-21T02:52:26;8.30;99.90
28171;DHT22;15458;53.346;-1.688;2023-11-21T02:54:51;8.40;99.90
28171;DHT22;15458;53.346;-1.688;2023-11-21T02:57:18;8.40;99.90
28171;DHT22;15458;53.346;-1.688;2023-11-21T02:59:44;8.40;99.90
28171;DHT22;15458;53.346;-1.688;2023-11-21T03:02:10;8.40;99.90
28171;DHT22;15458;53.346;-1.688;2023-11-21T03:04:35;8.40;99.90
28171;DHT22;15458;53.346;-1.688;2023-11-21T03:07:01;8.40;99.90
28171;DHT22;15458;53.346;-1.688;2023-11-21T03:09:27;8.30;99.90
28171;DHT22;15458;53.346;-1.688;2023-11-21T03:11:53;8.30;99.90
28171;DHT22;15458;53.346;-1.688;2023-11-21T03:14:19;8.40;99.90
28171;DHT22;15458;53.346;-1.688;2023-11-21T03:16:45;8.30;99.90
28171;DHT22;15458;53.346;-1.688;2023-11-21T03:19:11;8.30;99.90
28171;DHT22;15458;53.346;-1.688;2023-11-21T03:21:37;8.40;99.90
28171;DHT22;15458;53.346;-1.688;2023-11-21T03:24:03;8.40;99.90
28171;DHT22;15458;53.346;-1.688;2023-11-21T03:26:29;8.40;99.90
28171;DHT22;15458;53.346;-1.688;2023-11-21T03:28:55;8.40;99.90
28171;DHT22;15458;53.346;-1.688;2023-11-21T03:31:21;8.30;99.90
28171;DHT22;15458;53.346;-1.688;2023-11-21T03:33:47;8.40;99.90
28171;DHT22;15458;53.346;-1.688;2023-11-21T03:36:13;8.30;99.90
28171;DHT22;15458;53.346;-1.688;2023-11-21T03:38:40;8.30;99.90
28171;DHT22;15458;53.346;-1.688;2023-11-21T03:41:07;8.30;99.90
28171;DHT22;15458;53.346;-1.688;2023-11-21T03:43:36;8.30;99.90
28171;DHT22;15458;53.346;-1.688;2023-11-21T03:46:02;8.30;99.90
28171;DHT22;15458;53.346;-1.688;2023-11-21T03:48:27;8.40;99.90
28171;DHT22;15458;53.346;-1.688;2023-11-21T03:50:53;8.40;99.90
28171;DHT22;15458;53.346;-1.688;2023-11-21T03:53:19;8.40;99.90
28171;DHT22;15458;53.346;-1.688;2023-11-21T03:55:44;8.40;99.90
28171;DHT22;15458;53.346;-1.688;2023-11-21T03:58:10;8.30;99.90
28171;DHT22;15458;53.346;-1.688;2023-11-21T04:00:35;8.40;99.90
28171;DHT22;15458;53.346;-1.688;2023-11-21T04:03:01;8.40;99.90
28171;DHT22;15458;53.346;-1.688;2023-11-21T04:05:28;8.40;99.90
28171;DHT22;15458;53.346;-1.688;2023-11-21T04:07:54;8.40;99.90
28171;DHT22;15458;53.346;-1.688;2023-11-21T04:10:20;8.40;99.90
28171;DHT22;15458;53.346;-1.688;2023-11-21T04:12:46;8.40;99.90
28171;DHT22;15458;53.346;-1.688;2023-11-21T04:15:12;8.40;99.90
28171;DHT22;15458;53.346;-1.688;2023-11-21T04:17:41;8.40;99.90
28171;DHT22;15458;53.346;-1.688;2023-11-21T04:20:08;8.40;99.90
28171;DHT22;15458;53.346;-1.688;2023-11-21T04:22:38;8.40;99.90
28171;DHT22;15458;53.346;-1.688;2023-11-21T04:25:10;8.40;99.90
28171;DHT22;15458;53.346;-1.688;2023-11-21T04:27:42;8.40;99.90
28171;DHT22;15458;53.346;-1.688;2023-11-21T04:30:10;8.40;99.90
28171;DHT22;15458;53.346;-1.688;2023-11-21T04:32:36;8.40;99.90
28171;DHT22;15458;53.346;-1.688;2023-11-21T04:35:02;8.40;99.90
28171;DHT22;15458;53.346;-1.688;2023-11-21T04:37:27;8.30;99.90
28171;DHT22;15458;53.346;-1.688;2023-11-21T04:39:53;8.30;99.90
28171;DHT22;15458;53.346;-1.688;2023-11-21T04:42:19;8.30;99.90
28171;DHT22;15458;53.346;-1.688;2023-11-21T04:44:44;8.20;99.90
28171;DHT22;15458;53.346;-1.688;2023-11-21T04:47:10;8.20;99.90
28171;DHT22;15458;53.346;-1.688;2023-11-21T04:49:36;8.20;99.90
28171;DHT22;15458;53.346;-1.688;2023-11-21T04:52:01;8.20;99.90
28171;DHT22;15458;53.346;-1.688;2023-11-21T04:54:30;8.20;99.90
28171;DHT22;15458;53.346;-1.688;2023-11-21T04:56:56;8.10;99.90
28171;DHT22;15458;53.346;-1.688;2023-11-21T04:59:21;8.10;99.90
28171;DHT22;15458;53.346;-1.688;2023-11-21T05:01:50;8.10;99.90
28171;DHT22;15458;53.346;-1.688;2023-11-21T05:04:16;8.10;99.90
28171;DHT22;15458;53.346;-1.688;2023-11-21T05:06:41;8.20;99.90
28171;DHT22;15458;53.346;-1.688;2023-11-21T05:09:07;8.20;99.90
28171;DHT22;15458;53.346;-1.688;2023-11-21T05:11:37;8.20;99.90
28171;DHT22;15458;53.346;-1.688;2023-11-21T05:14:03;8.20;99.90
28171;DHT22;15458;53.346;-1.688;2023-11-21T05:16:30;8.20;99.90
28171;DHT22;15458;53.346;-1.688;2023-11-21T05:18:56;8.20;99.90
28171;DHT22;15458;53.346;-1.688;2023-11-21T05:21:26;8.20;99.90
28171;DHT22;15458;53.346;-1.688;2023-11-21T05:23:51;8.20;99.90
28171;DHT22;15458;53.346;-1.688;2023-11-21T05:26:18;8.20;99.90
28171;DHT22;15458;53.346;-1.688;2023-11-21T05:28:43;8.20;99.90
28171;DHT22;15458;53.346;-1.688;2023-11-21T05:31:09;8.20;99.90
28171;DHT22;15458;53.346;-1.688;2023-11-21T05:33:36;8.20;99.90
28171;DHT22;15458;53.346;-1.688;2023-11-21T05:36:02;8.20;99.90
28171;DHT22;15458;53.346;-1.688;2023-11-21T05:38:28;8.20;99.90
28171;DHT22;15458;53.346;-1.688;2023-11-21T05:40:53;8.20;99.90
28171;DHT22;15458;53.346;-1.688;2023-11-21T05:43:19;8.20;99.90
28171;DHT22;15458;53.346;-1.688;2023-11-21T05:45:45;8.10;99.90
28171;DHT22;15458;53.346;-1.688;2023-11-21T05:48:11;8.20;99.90
28171;DHT22;15458;53.346;-1.688;2023-11-21T05:50:36;8.10;99.90
28171;DHT22;15458;53.346;-1.688;2023-11-21T05:53:03;8.10;99.90
28171;DHT22;15458;53.346;-1.688;2023-11-21T05:55:29;8.10;99.90
28171;DHT22;15458;53.346;-1.688;2023-11-21T05:57:55;8.10;99.90
28171;DHT22;15458;53.346;-1.688;2023-11-21T06:00:20;8.10;99.90
28171;DHT22;15458;53.346;-1.688;2023-11-21T06:02:52;8.10;99.90
28171;DHT22;15458;53.346;-1.688;2023-11-21T06:05:20;8.10;99.90
28171;DHT22;15458;53.346;-1.688;2023-11-21T06:07:46;8.10;99.90
28171;DHT22;15458;53.346;-1.688;2023-11-21T06:10:12;8.00;99.90
28171;DHT22;15458;53.346;-1.688;2023-11-21T06:12:40;8.00;99.90
28171;DHT22;15458;53.346;-1.688;2023-11-21T06:15:09;8.00;99.90
28171;DHT22;15458;53.346;-1.688;2023-11-21T06:17:35;8.00;99.90
28171;DHT22;15458;53.346;-1.688;2023-11-21T06:20:03;8.10;99.90
28171;DHT22;15458;53.346;-1.688;2023-11-21T06:22:36;8.10;99.90
28171;DHT22;15458;53.346;-1.688;2023-11-21T06:25:01;8.10;99.90
28171;DHT22;15458;53.346;-1.688;2023-11-21T06:27:28;8.10;99.90
28171;DHT22;15458;53.346;-1.688;2023-11-21T06:29:55;8.10;99.90
28171;DHT22;15458;53.346;-1.688;2023-11-21T06:32:20;8.10;99.90
28171;DHT22;15458;53.346;-1.688;2023-11-21T06:34:48;8.10;99.90
28171;DHT22;15458;53.346;-1.688;2023-11-21T06:37:15;8.10;99.90
28171;DHT22;15458;53.346;-1.688;2023-11-21T06:39:40;8.10;99.90
28171;DHT22;15458;53.346;-1.688;2023-11-21T06:42:07;8.10;99.90
28171;DHT22;15458;53.346;-1.688;2023-11-21T06:44:32;8.00;99.90
28171;DHT22;15458;53.346;-1.688;2023-11-21T06:46:59;8.00;99.90
28171;DHT22;15458;53.346;-1.688;2023-11-21T06:49:25;8.00;99.90
28171;DHT22;15458;53.346;-1.688;2023-11-21T06:51:51;8.00;99.90
28171;DHT22;15458;53.346;-1.688;2023-11-21T06:54:16;8.00;99.90
28171;DHT22;15458;53.346;-1.688;2023-11-21T06:56:42;8.00;99.90
28171;DHT22;15458;53.346;-1.688;2023-11-21T06:59:08;8.00;99.90
28171;DHT22;15458;53.346;-1.688;2023-11-21T07:01:34;8.00;99.90
28171;DHT22;15458;53.346;-1.688;2023-11-21T07:04:05;8.00;99.90
28171;DHT22;15458;53.346;-1.688;2023-11-21T07:06:32;8.00;99.90
28171;DHT22;15458;53.346;-1.688;2023-11-21T07:08:57;8.00;99.90
28171;DHT22;15458;53.346;-1.688;2023-11-21T07:11:24;7.90;99.90
28171;DHT22;15458;53.346;-1.688;2023-11-21T07:13:50;8.00;99.90
28171;DHT22;15458;53.346;-1.688;2023-11-21T07:16:16;7.90;99.90
28171;DHT22;15458;53.346;-1.688;2023-11-21T07:18:42;7.90;99.90
28171;DHT22;15458;53.346;-1.688;2023-11-21T07:21:08;8.00;99.90
28171;DHT22;15458;53.346;-1.688;2023-11-21T07:23:34;8.00;99.90
28171;DHT22;15458;53.346;-1.688;2023-11-21T07:25:59;8.00;99.90
28171;DHT22;15458;53.346;-1.688;2023-11-21T07:28:25;8.00;99.90
28171;DHT22;15458;53.346;-1.688;2023-11-21T07:30:51;8.10;99.90
28171;DHT22;15458;53.346;-1.688;2023-11-21T07:33:17;8.10;99.90
28171;DHT22;15458;53.346;-1.688;2023-11-21T07:35:43;8.10;99.90
28171;DHT22;15458;53.346;-1.688;2023-11-21T07:38:09;8.00;99.90
28171;DHT22;15458;53.346;-1.688;2023-11-21T07:40:34;8.00;99.90
28171;DHT22;15458;53.346;-1.688;2023-11-21T07:43:15;8.00;99.90
28171;DHT22;15458;53.346;-1.688;2023-11-21T07:45:41;8.00;99.90
28171;DHT22;15458;53.346;-1.688;2023-11-21T07:48:07;8.00;99.90
28171;DHT22;15458;53.346;-1.688;2023-11-21T07:50:33;8.00;99.90
28171;DHT22;15458;53.346;-1.688;2023-11-21T07:52:58;8.00;99.90
28171;DHT22;15458;53.346;-1.688;2023-11-21T07:55:24;7.90;99.90
28171;DHT22;15458;53.346;-1.688;2023-11-21T07:57:50;7.90;99.90
28171;DHT22;15458;53.346;-1.688;2023-11-21T08:00:16;7.90;99.90
28171;DHT22;15458;53.346;-1.688;2023-11-21T08:02:42;7.90;99.90
28171;DHT22;15458;53.346;-1.688;2023-11-21T08:05:10;7.90;99.90
28171;DHT22;15458;53.346;-1.688;2023-11-21T08:07:36;7.90;99.90
28171;DHT22;15458;53.346;-1.688;2023-11-21T08:10:01;7.90;99.90
28171;DHT22;15458;53.346;-1.688;2023-11-21T08:12:27;7.80;99.90
28171;DHT22;15458;53.346;-1.688;2023-11-21T08:14:53;7.90;99.90
28171;DHT22;15458;53.346;-1.688;2023-11-21T08:17:19;7.80;99.90
28171;DHT22;15458;53.346;-1.688;2023-11-21T08:19:46;7.80;99.90
28171;DHT22;15458;53.346;-1.688;2023-11-21T08:22:17;7.80;99.90
28171;DHT22;15458;53.346;-1.688;2023-11-21T08:24:44;7.80;99.90
28171;DHT22;15458;53.346;-1.688;2023-11-21T08:27:10;7.80;99.90
28171;DHT22;15458;53.346;-1.688;2023-11-21T08:29:35;7.80;99.90
28171;DHT22;15458;53.346;-1.688;2023-11-21T08:32:04;7.80;99.90
28171;DHT22;15458;53.346;-1.688;2023-11-21T08:34:30;7.80;99.90
28171;DHT22;15458;53.346;-1.688;2023-11-21T08:36:56;7.80;99.90
28171;DHT22;15458;53.346;-1.688;2023-11-21T08:39:22;7.80;99.90
28171;DHT22;15458;53.346;-1.688;2023-11-21T08:41:52;7.80;99.90
28171;DHT22;15458;53.346;-1.688;2023-11-21T08:44:19;7.90;99.90
28171;DHT22;15458;53.346;-1.688;2023-11-21T08:46:44;7.80;99.90
28171;DHT22;15458;53.346;-1.688;2023-11-21T08:49:13;7.80;99.90
28171;DHT22;15458;53.346;-1.688;2023-11-21T08:51:40;7.80;99.90
28171;DHT22;15458;53.346;-1.688;2023-11-21T08:54:06;7.90;99.90
28171;DHT22;15458;53.346;-1.688;2023-11-21T08:56:36;7.90;99.90
28171;DHT22;15458;53.346;-1.688;2023-11-21T08:59:02;7.90;99.90
28171;DHT22;15458;53.346;-1.688;2023-11-21T09:01:31;7.90;99.90
28171;DHT22;15458;53.346;-1.688;2023-11-21T09:03:58;7.90;99.90
28171;DHT22;15458;53.346;-1.688;2023-11-21T09:06:24;7.90;99.90
28171;DHT22;15458;53.346;-1.688;2023-11-21T09:08:50;7.90;99.90
28171;DHT22;15458;53.346;-1.688;2023-11-21T09:11:15;7.90;99.90
28171;DHT22;15458;53.346;-1.688;2023-11-21T09:13:41;7.90;99.90
28171;DHT22;15458;53.346;-1.688;2023-11-21T09:16:07;8.00;99.90
28171;DHT22;15458;53.346;-1.688;2023-11-21T09:18:33;8.00;99.90
28171;DHT22;15458;53.346;-1.688;2023-11-21T09:20:58;8.00;99.90
28171;DHT22;15458;53.346;-1.688;2023-11-21T09:23:24;8.00;99.90
28171;DHT22;15458;53.346;-1.688;2023-11-21T09:25:50;8.00;99.90
28171;DHT22;15458;53.346;-1.688;2023-11-21T09:28:17;8.00;99.90
28171;DHT22;15458;53.346;-1.688;2023-11-21T09:30:43;8.00;99.90
28171;DHT22;15458;53.346;-1.688;2023-11-21T09:33:09;8.00;99.90
28171;DHT22;15458;53.346;-1.688;2023-11-21T09:35:37;8.10;99.90
28171;DHT22;15458;53.346;-1.688;2023-11-21T09:38:03;8.10;99.90
28171;DHT22;15458;53.346;-1.688;2023-11-21T09:40:35;8.10;99.90
28171;DHT22;15458;53.346;-1.688;2023-11-21T09:43:09;8.10;99.90
28171;DHT22;15458;53.346;-1.688;2023-11-21T09:45:45;8.20;99.90
28171;DHT22;15458;53.346;-1.688;2023-11-21T09:48:11;8.20;99.90
28171;DHT22;15458;53.346;-1.688;2023-11-21T09:50:37;8.30;99.90
28171;DHT22;15458;53.346;-1.688;2023-11-21T09:53:20;8.30;99.90
28171;DHT22;15458;53.346;-1.688;2023-11-21T09:55:48;8.30;99.90
28171;DHT22;15458;53.346;-1.688;2023-11-21T09:58:17;8.40;99.90
28171;DHT22;15458;53.346;-1.688;2023-11-21T10:00:48;8.30;99.90
28171;DHT22;15458;53.346;-1.688;2023-11-21T10:03:14;8.40;99.90
28171;DHT22;15458;53.346;-1.688;2023-11-21T10:05:42;8.40;99.90
28171;DHT22;15458;53.346;-1.688;2023-11-21T10:08:10;8.40;99.90
28171;DHT22;15458;53.346;-1.688;2023-11-21T10:10:37;8.40;99.90
28171;DHT22;15458;53.346;-1.688;2023-11-21T10:13:05;8.40;99.90
28171;DHT22;15458;53.346;-1.688;2023-11-21T10:15:36;8.40;99.90
28171;DHT22;15458;53.346;-1.688;2023-11-21T10:18:03;8.40;99.90
28171;DHT22;15458;53.346;-1.688;2023-11-21T10:20:30;8.40;99.90
28171;DHT22;15458;53.346;-1.688;2023-11-21T10:22:56;8.50;99.90
28171;DHT22;15458;53.346;-1.688;2023-11-21T10:25:22;8.50;99.90
28171;DHT22;15458;53.346;-1.688;2023-11-21T10:27:49;8.60;99.90
28171;DHT22;15458;53.346;-1.688;2023-11-21T10:30:18;8.60;99.90
28171;DHT22;15458;53.346;-1.688;2023-11-21T10:32:43;8.60;99.90
28171;DHT22;15458;53.346;-1.688;2023-11-21T10:35:10;8.70;99.90
28171;DHT22;15458;53.346;-1.688;2023-11-21T10:37:39;8.70;99.90
28171;DHT22;15458;53.346;-1.688;2023-11-21T10:40:10;8.70;99.90
28171;DHT22;15458;53.346;-1.688;2023-11-21T10:42:38;8.70;99.90
28171;DHT22;15458;53.346;-1.688;2023-11-21T10:45:07;8.60;99.90
28171;DHT22;15458;53.346;-1.688;2023-11-21T10:47:40;8.60;99.90
28171;DHT22;15458;53.346;-1.688;2023-11-21T10:50:07;8.50;99.90
28171;DHT22;15458;53.346;-1.688;2023-11-21T10:52:37;8.50;99.90
28171;DHT22;15458;53.346;-1.688;2023-11-21T10:55:19;8.50;99.90
28171;DHT22;15458;53.346;-1.688;2023-11-21T10:57:53;8.50;99.90
28171;DHT22;15458;53.346;-1.688;2023-11-21T11:00:19;8.50;99.90
28171;DHT22;15458;53.346;-1.688;2023-11-21T11:02:50;8.40;99.90
28171;DHT22;15458;53.346;-1.688;2023-11-21T11:05:19;8.30;99.90
28171;DHT22;15458;53.346;-1.688;2023-11-21T11:07:48;8.30;99.90
28171;DHT22;15458;53.346;-1.688;2023-11-21T11:10:20;8.20;99.90
28171;DHT22;15458;53.346;-1.688;2023-11-21T11:12:48;8.20;99.90
28171;DHT22;15458;53.346;-1.688;2023-11-21T11:15:16;8.20;99.90
28171;DHT22;15458;53.346;-1.688;2023-11-21T11:17:42;8.20;99.90
28171;DHT22;15458;53.346;-1.688;2023-11-21T11:20:12;8.20;99.90
28171;DHT22;15458;53.346;-1.688;2023-11-21T11:25:59;8.20;99.90
28171;DHT22;15458;53.346;-1.688;2023-11-21T11:31:32;8.30;99.90
28171;DHT22;15458;53.346;-1.688;2023-11-21T11:34:26;8.30;99.90
28171;DHT22;15458;53.346;-1.688;2023-11-21T11:37:04;8.40;99.90
28171;DHT22;15458;53.346;-1.688;2023-11-21T11:39:40;8.40;99.90
28171;DHT22;15458;53.346;-1.688;2023-11-21T11:42:13;8.40;99.90
28171;DHT22;15458;53.346;-1.688;2023-11-21T11:47:28;8.50;99.90
28171;DHT22;15458;53.346;-1.688;2023-11-21T11:52:43;8.60;99.90
28171;DHT22;15458;53.346;-1.688;2023-11-21T11:55:13;9.00;99.90
28171;DHT22;15458;53.346;-1.688;2023-11-21T11:57:41;9.50;99.90
28171;DHT22;15458;53.346;-1.688;2023-11-21T12:00:43;10.20;99.90
28171;DHT22;15458;53.346;-1.688;2023-11-21T12:03:10;11.00;99.90
28171;DHT22;15458;53.346;-1.688;2023-11-21T12:05:36;11.80;99.90
28171;DHT22;15458;53.346;-1.688;2023-11-21T12:08:05;12.30;99.90
28171;DHT22;15458;53.346;-1.688;2023-11-21T12:10:33;12.90;99.90
28171;DHT22;15458;53.346;-1.688;2023-11-21T12:13:00;13.30;99.90
28171;DHT22;15458;53.346;-1.688;2023-11-21T12:15:27;13.40;99.90
28171;DHT22;15458;53.346;-1.688;2023-11-21T12:17:57;13.40;99.90
28171;DHT22;15458;53.346;-1.688;2023-11-21T12:20:24;13.30;99.90
28171;DHT22;15458;53.346;-1.688;2023-11-21T12:22:55;13.20;99.90
28171;DHT22;15458;53.346;-1.688;2023-11-21T12:25:28;13.10;99.90
28171;DHT22;15458;53.346;-1.688;2023-11-21T12:27:57;13.30;99.90
28171;DHT22;15458;53.346;-1.688;2023-11-21T12:30:24;13.70;99.90
28171;DHT22;15458;53.346;-1.688;2023-11-21T12:32:59;14.10;99.90
28171;DHT22;15458;53.346;-1.688;2023-11-21T12:35:29;14.40;99.90
28171;DHT22;15458;53.346;-1.688;2023-11-21T12:37:56;14.60;99.90
28171;DHT22;15458;53.346;-1.688;2023-11-21T12:40:22;14.50;99.90
28171;DHT22;15458;53.346;-1.688;2023-11-21T12:42:51;14.40;99.90
28171;DHT22;15458;53.346;-1.688;2023-11-21T12:45:21;14.10;99.90
28171;DHT22;15458;53.346;-1.688;2023-11-21T12:47:47;13.60;99.80
28171;DHT22;15458;53.346;-1.688;2023-11-21T12:50:23;13.10;99.90
28171;DHT22;15458;53.346;-1.688;2023-11-21T12:52:51;12.60;99.90
28171;DHT22;15458;53.346;-1.688;2023-11-21T12:55:17;12.10;99.90
28171;DHT22;15458;53.346;-1.688;2023-11-21T12:57:45;11.70;99.90
28171;DHT22;15458;53.346;-1.688;2023-11-21T13:00:12;11.40;99.90
28171;DHT22;15458;53.346;-1.688;2023-11-21T13:02:51;11.10;99.90
28171;DHT22;15458;53.346;-1.688;2023-11-21T13:05:34;10.80;99.90
28171;DHT22;15458;53.346;-1.688;2023-11-21T13:08:03;10.60;99.90
28171;DHT22;15458;53.346;-1.688;2023-11-21T13:10:32;10.40;99.90
28171;DHT22;15458;53.346;-1.688;2023-11-21T13:13:01;10.30;99.90
28171;DHT22;15458;53.346;-1.688;2023-11-21T13:15:30;10.20;99.90
28171;DHT22;15458;53.346;-1.688;2023-11-21T13:18:00;10.10;99.90
28171;DHT22;15458;53.346;-1.688;2023-11-21T13:20:26;10.10;99.90
28171;DHT22;15458;53.346;-1.688;2023-11-21T13:23:06;10.10;99.90
28171;DHT22;15458;53.346;-1.688;2023-11-21T13:25:33;10.10;99.90
28171;DHT22;15458;53.346;-1.688;2023-11-21T13:27:59;10.20;99.90
28171;DHT22;15458;53.346;-1.688;2023-11-21T13:30:26;10.30;99.90
28171;DHT22;15458;53.346;-1.688;2023-11-21T13:32:53;10.50;99.90
28171;DHT22;15458;53.346;-1.688;2023-11-21T13:35:25;10.70;99.90
28171;DHT22;15458;53.346;-1.688;2023-11-21T13:38:08;11.10;99.90
28171;DHT22;15458;53.346;-1.688;2023-11-21T13:40:35;11.40;99.90
28171;DHT22;15458;53.346;-1.688;2023-11-21T13:43:08;12.10;99.90
28171;DHT22;15458;53.346;-1.688;2023-11-21T13:45:42;12.90;99.90
28171;DHT22;15458;53.346;-1.688;2023-11-21T13:48:10;13.70;99.90
28171;DHT22;15458;53.346;-1.688;2023-11-21T13:50:43;14.50;99.90
28171;DHT22;15458;53.346;-1.688;2023-11-21T13:53:14;14.60;99.90
28171;DHT22;15458;53.346;-1.688;2023-11-21T13:55:53;14.20;99.60
28171;DHT22;15458;53.346;-1.688;2023-11-21T13:58:23;13.70;99.50
28171;DHT22;15458;53.346;-1.688;2023-11-21T14:01:08;13.10;99.90
28171;DHT22;15458;53.346;-1.688;2023-11-21T14:04:00;12.50;99.90
28171;DHT22;15458;53.346;-1.688;2023-11-21T14:06:28;12.20;99.90
28171;DHT22;15458;53.346;-1.688;2023-11-21T14:09:00;12.20;99.90
28171;DHT22;15458;53.346;-1.688;2023-11-21T14:11:30;12.00;99.90
28171;DHT22;15458;53.346;-1.688;2023-11-21T14:13:56;11.90;99.90
28171;DHT22;15458;53.346;-1.688;2023-11-21T14:16:24;11.60;99.90
28171;DHT22;15458;53.346;-1.688;2023-11-21T14:18:50;11.30;99.90
28171;DHT22;15458;53.346;-1.688;2023-11-21T14:21:22;11.10;99.90
28171;DHT22;15458;53.346;-1.688;2023-11-21T14:23:48;10.90;99.90
28171;DHT22;15458;53.346;-1.688;2023-11-21T14:26:14;10.70;99.90
28171;DHT22;15458;53.346;-1.688;2023-11-21T14:28:42;10.50;99.90
28171;DHT22;15458;53.346;-1.688;2023-11-21T14:31:08;10.40;99.90
28171;DHT22;15458;53.346;-1.688;2023-11-21T14:33:39;10.20;99.90
28171;DHT22;15458;53.346;-1.688;2023-11-21T14:36:05;10.00;99.90
28171;DHT22;15458;53.346;-1.688;2023-11-21T14:38:33;9.90;99.90
28171;DHT22;15458;53.346;-1.688;2023-11-21T14:40:59;9.80;99.90
28171;DHT22;15458;53.346;-1.688;2023-11-21T14:43:25;9.70;99.90
28171;DHT22;15458;53.346;-1.688;2023-11-21T14:45:55;9.70;99.90
28171;DHT22;15458;53.346;-1.688;2023-11-21T14:48:21;9.60;99.90
28171;DHT22;15458;53.346;-1.688;2023-11-21T14:51:05;9.50;99.90
28171;DHT22;15458;53.346;-1.688;2023-11-21T14:53:31;9.40;99.90
28171;DHT22;15458;53.346;-1.688;2023-11-21T14:56:19;9.30;99.90
28171;DHT22;15458;53.346;-1.688;2023-11-21T14:58:52;9.30;99.90
28171;DHT22;15458;53.346;-1.688;2023-11-21T15:01:20;9.10;99.90
28171;DHT22;15458;53.346;-1.688;2023-11-21T15:03:56;9.00;99.90
28171;DHT22;15458;53.346;-1.688;2023-11-21T15:06:23;9.00;99.90
28171;DHT22;15458;53.346;-1.688;2023-11-21T15:08:56;8.90;99.90
28171;DHT22;15458;53.346;-1.688;2023-11-21T15:11:42;8.80;99.90
28171;DHT22;15458;53.346;-1.688;2023-11-21T15:14:07;8.80;99.90
28171;DHT22;15458;53.346;-1.688;2023-11-21T15:16:38;8.80;99.90
28171;DHT22;15458;53.346;-1.688;2023-11-21T15:19:10;8.80;99.90
28171;DHT22;15458;53.346;-1.688;2023-11-21T15:21:37;8.70;99.90
28171;DHT22;15458;53.346;-1.688;2023-11-21T15:24:03;8.70;99.90
28171;DHT22;15458;53.346;-1.688;2023-11-21T15:26:29;8.70;99.90
28171;DHT22;15458;53.346;-1.688;2023-11-21T15:28:55;8.70;99.90
28171;DHT22;15458;53.346;-1.688;2023-11-21T15:31:22;8.70;99.90
28171;DHT22;15458;53.346;-1.688;2023-11-21T15:33:51;8.60;99.90
28171;DHT22;15458;53.346;-1.688;2023-11-21T15:36:18;8.60;99.90
28171;DHT22;15458;53.346;-1.688;2023-11-21T15:38:44;8.60;99.90
28171;DHT22;15458;53.346;-1.688;2023-11-21T15:41:10;8.50;99.90
28171;DHT22;15458;53.346;-1.688;2023-11-21T15:43:37;8.50;99.90